Terminal Aerodrome Forecast
Issued by NWS

Home | Current Version | Previous Version | Text Only | Print | Product List | Glossary On
Versions: 1 2 3 4 5 6 7 8 9 10 11 12 13 14 15
089
FTUS46 KPDT 072320
TAFALW
TAF
KALW 072320Z 0800/0824 VRB04KT P6SM SCT200
     FM081200 12003KT 5SM BR SCT200
     FM081500 VRB03KT 6SM BR SCT200
     FM081800 29003KT P6SM SCT200=

USA.gov is the U.S. government's official web portal to all federal, state and local government web resources and services.